createdAt,value
2024-01-17T00:00:19.820Z,11.97
2024-01-17T00:02:54.078Z,9.00
2024-01-17T00:05:28.211Z,8.23
2024-01-17T00:08:02.957Z,11.33
2024-01-17T00:10:38.533Z,8.97
2024-01-17T00:13:12.645Z,7.43
2024-01-17T00:15:46.764Z,5.90
2024-01-17T00:18:21.104Z,6.80
2024-01-17T00:20:55.396Z,6.27
2024-01-17T00:23:29.539Z,8.60
2024-01-17T00:26:05.388Z,6.47
2024-01-17T00:28:39.498Z,8.33
2024-01-17T00:31:13.675Z,5.17
2024-01-17T00:33:49.093Z,8.77
2024-01-17T00:36:23.273Z,6.90
2024-01-17T00:38:57.442Z,10.77
2024-01-17T00:41:32.903Z,10.00
2024-01-17T00:44:07.069Z,10.03
2024-01-17T00:46:41.135Z,12.00
2024-01-17T00:49:15.226Z,12.87
2024-01-17T00:51:49.354Z,7.87
2024-01-17T00:54:23.769Z,8.30
2024-01-17T00:57:00.712Z,7.57
2024-01-17T00:59:36.167Z,12.47
2024-01-17T01:02:10.352Z,9.63
2024-01-17T01:04:44.399Z,10.03
2024-01-17T01:07:18.534Z,7.17
2024-01-17T01:09:55.836Z,9.90
2024-01-17T01:12:32.768Z,9.63
2024-01-17T01:15:09.417Z,6.27
2024-01-17T01:17:43.735Z,9.03
2024-01-17T01:20:18.050Z,11.23
2024-01-17T01:22:52.178Z,8.17
2024-01-17T01:25:27.226Z,9.90
2024-01-17T01:28:02.803Z,9.23
2024-01-17T01:30:36.987Z,7.50
2024-01-17T01:33:11.294Z,9.40
2024-01-17T01:35:45.515Z,7.17
2024-01-17T01:38:19.609Z,9.37
2024-01-17T01:40:53.800Z,7.77
2024-01-17T01:43:29.359Z,7.47
2024-01-17T01:46:17.743Z,7.90
2024-01-17T01:48:52.768Z,10.17
2024-01-17T01:51:28.002Z,11.23
2024-01-17T01:54:05.634Z,8.47
2024-01-17T01:56:40.717Z,9.80
2024-01-17T01:59:20.222Z,10.87
2024-01-17T02:01:55.507Z,11.23
2024-01-17T02:04:30.138Z,8.43
2024-01-17T02:07:05.212Z,9.70
2024-01-17T02:09:40.882Z,15.30
2024-01-17T02:12:15.239Z,8.30
2024-01-17T02:14:50.739Z,9.50
2024-01-17T02:17:25.075Z,8.90
2024-01-17T02:19:59.795Z,10.67
2024-01-17T02:22:33.952Z,7.63
2024-01-17T02:25:09.982Z,11.30
2024-01-17T02:27:44.054Z,8.13
2024-01-17T02:30:18.336Z,11.70
2024-01-17T02:32:54.326Z,10.23
2024-01-17T02:35:28.549Z,9.33
2024-01-17T02:38:02.734Z,10.37
2024-01-17T02:40:38.265Z,9.97
2024-01-17T02:43:12.365Z,6.77
2024-01-17T02:45:46.631Z,9.60
2024-01-17T02:48:20.904Z,10.20
2024-01-17T02:50:55.194Z,9.70
2024-01-17T02:53:29.301Z,11.70
2024-01-17T02:56:05.185Z,11.73
2024-01-17T02:58:39.274Z,10.80
2024-01-17T03:01:15.834Z,10.50
2024-01-17T03:03:50.678Z,9.13
2024-01-17T03:06:24.812Z,12.50
2024-01-17T03:08:59.136Z,7.53
2024-01-17T03:11:34.636Z,8.53
2024-01-17T03:14:08.774Z,8.33
2024-01-17T03:16:42.884Z,10.27
2024-01-17T03:19:17.186Z,6.87
2024-01-17T03:21:51.798Z,8.10
2024-01-17T03:24:25.897Z,8.10
2024-01-17T03:27:01.327Z,10.57
2024-01-17T03:29:35.531Z,8.43
2024-01-17T03:32:09.825Z,9.47
2024-01-17T03:34:43.893Z,11.97
2024-01-17T03:37:18.015Z,7.83
2024-01-17T03:39:52.125Z,8.93
2024-01-17T03:42:27.512Z,13.23
2024-01-17T03:45:01.675Z,8.57
2024-01-17T03:47:37.113Z,15.10
2024-01-17T03:50:11.786Z,10.30
2024-01-17T03:52:45.859Z,9.83
2024-01-17T03:55:19.962Z,9.50
2024-01-17T03:57:55.357Z,10.83
2024-01-17T04:00:29.511Z,8.77
2024-01-17T04:03:03.682Z,9.23
2024-01-17T04:05:39.117Z,8.27
2024-01-17T04:08:13.211Z,8.23
2024-01-17T04:10:47.252Z,9.03
2024-01-17T04:13:22.646Z,8.13
2024-01-17T04:15:56.768Z,10.03
2024-01-17T04:18:32.192Z,11.97
2024-01-17T04:21:06.929Z,10.43
2024-01-17T04:23:41.003Z,8.47
2024-01-17T04:26:24.868Z,7.63
2024-01-17T04:29:00.670Z,12.93
2024-01-17T04:31:34.807Z,6.87
2024-01-17T04:34:08.933Z,9.83
2024-01-17T04:36:43.265Z,9.07
2024-01-17T04:39:18.004Z,8.27
2024-01-17T04:41:52.106Z,8.63
2024-01-17T04:44:31.624Z,11.77
2024-01-17T04:47:05.946Z,9.00
2024-01-17T04:49:40.218Z,11.90
2024-01-17T04:52:17.326Z,9.20
2024-01-17T04:54:51.677Z,11.23
2024-01-17T04:57:25.735Z,9.30
2024-01-17T05:00:01.315Z,7.47
2024-01-17T05:02:35.409Z,12.37
2024-01-17T05:05:11.909Z,11.73
2024-01-17T05:07:47.086Z,9.30
2024-01-17T05:10:21.188Z,9.53
2024-01-17T05:12:55.211Z,8.33
2024-01-17T05:15:30.659Z,9.10
2024-01-17T05:18:05.791Z,9.93
2024-01-17T05:20:40.871Z,7.10
2024-01-17T05:23:15.088Z,10.13
2024-01-17T05:25:49.410Z,14.53
2024-01-17T05:28:23.567Z,9.53
2024-01-17T05:30:59.385Z,11.43
2024-01-17T05:33:33.750Z,11.10
2024-01-17T05:36:09.067Z,8.00
2024-01-17T05:38:43.230Z,13.00
2024-01-17T05:41:17.359Z,13.47
2024-01-17T05:43:51.429Z,9.73
2024-01-17T05:46:27.286Z,10.47
2024-01-17T05:49:01.476Z,9.13
2024-01-17T05:51:35.692Z,10.33
2024-01-17T05:54:09.954Z,9.80
2024-01-17T05:56:44.058Z,10.40
2024-01-17T05:59:18.303Z,12.17
2024-01-17T06:01:56.824Z,10.97
2024-01-17T06:04:34.289Z,8.80
2024-01-17T06:07:08.441Z,12.03
2024-01-17T06:09:44.682Z,11.20
2024-01-17T06:12:18.775Z,8.53
2024-01-17T06:14:53.477Z,13.27
2024-01-17T06:17:29.700Z,8.37
2024-01-17T06:20:03.941Z,8.77
2024-01-17T06:22:38.556Z,8.83
2024-01-17T06:25:13.413Z,11.40
2024-01-17T06:27:47.495Z,9.93
2024-01-17T06:30:21.749Z,12.70
2024-01-17T06:32:57.384Z,11.93
2024-01-17T06:35:32.207Z,8.60
2024-01-17T06:38:06.254Z,9.43
2024-01-17T06:40:41.663Z,9.03
2024-01-17T06:43:15.833Z,11.43
2024-01-17T06:45:49.880Z,8.03
2024-01-17T06:48:25.333Z,9.23
2024-01-17T06:50:59.600Z,7.90
2024-01-17T06:53:33.720Z,13.33
2024-01-17T06:56:08.406Z,12.90
2024-01-17T06:58:43.657Z,9.60
2024-01-17T07:01:17.795Z,11.17
2024-01-17T07:03:53.300Z,10.27
2024-01-17T07:06:27.514Z,10.67
2024-01-17T07:09:01.666Z,12.73
2024-01-17T07:11:35.980Z,12.00
2024-01-17T07:14:10.730Z,10.80
2024-01-17T07:16:44.824Z,12.13
2024-01-17T07:19:20.258Z,11.43
2024-01-17T07:21:54.317Z,11.23
2024-01-17T07:24:28.366Z,14.27
2024-01-17T07:27:02.539Z,10.33
2024-01-17T07:29:37.289Z,8.40
2024-01-17T07:32:11.413Z,8.73
2024-01-17T07:34:47.308Z,9.77
2024-01-17T07:37:21.704Z,11.37
2024-01-17T07:39:55.756Z,10.00
2024-01-17T07:42:30.262Z,11.43
2024-01-17T07:45:05.654Z,9.33
2024-01-17T07:47:39.815Z,9.80
2024-01-17T07:50:15.287Z,10.83
2024-01-17T07:52:49.342Z,9.10
2024-01-17T07:55:23.817Z,8.20
2024-01-17T07:57:59.304Z,11.13
2024-01-17T08:00:33.745Z,10.47
2024-01-17T08:03:09.054Z,10.13
2024-01-17T08:05:44.594Z,10.90
2024-01-17T08:08:18.754Z,9.50
2024-01-17T08:10:53.381Z,10.73
2024-01-17T08:13:27.526Z,13.97
2024-01-17T08:16:01.599Z,8.63
2024-01-17T08:18:35.842Z,8.37
2024-01-17T08:21:11.314Z,10.93
2024-01-17T08:23:45.546Z,9.73
2024-01-17T08:26:19.667Z,13.93
2024-01-17T08:28:53.774Z,9.93
2024-01-17T08:31:27.821Z,13.90
2024-01-17T08:34:03.328Z,9.90
2024-01-17T08:36:39.011Z,9.87
2024-01-17T08:39:13.182Z,9.83
2024-01-17T08:41:48.453Z,10.53
2024-01-17T08:44:24.127Z,11.53
2024-01-17T08:46:58.254Z,11.50
2024-01-17T08:49:32.338Z,10.67
2024-01-17T08:52:09.385Z,11.07
2024-01-17T08:54:43.805Z,9.07
2024-01-17T08:57:17.989Z,11.10
2024-01-17T08:59:52.147Z,11.73
2024-01-17T09:02:26.220Z,10.10
2024-01-17T09:05:00.366Z,10.33
2024-01-17T09:07:37.327Z,8.57
2024-01-17T09:10:14.196Z,10.73
2024-01-17T09:12:48.359Z,13.33
2024-01-17T09:15:22.555Z,8.57
2024-01-17T09:17:56.876Z,11.43
2024-01-17T09:20:31.062Z,10.63
2024-01-17T09:23:06.555Z,12.40
2024-01-17T09:25:40.693Z,10.57
2024-01-17T09:28:14.812Z,9.97
2024-01-17T09:30:48.972Z,11.03
2024-01-17T09:33:23.445Z,14.77
2024-01-17T09:36:02.358Z,15.97
2024-01-17T09:38:38.758Z,16.45
2024-01-17T09:41:12.954Z,15.00
2024-01-17T09:43:47.197Z,12.87
2024-01-17T09:46:21.588Z,15.47
2024-01-17T09:48:55.823Z,15.33
2024-01-17T09:51:34.066Z,13.13
2024-01-17T09:54:11.119Z,14.63
2024-01-17T09:56:49.222Z,10.43
2024-01-17T09:59:29.087Z,12.50
2024-01-17T10:02:03.582Z,11.43
2024-01-17T10:04:38.188Z,11.53
2024-01-17T10:07:13.640Z,9.07
2024-01-17T10:09:49.181Z,11.03
2024-01-17T10:12:23.313Z,11.97
2024-01-17T10:14:57.536Z,15.60
2024-01-17T10:17:31.633Z,20.00
2024-01-17T10:20:07.776Z,29.97
2024-01-17T10:22:44.186Z,16.50
2024-01-17T10:25:19.683Z,20.47
2024-01-17T10:27:53.828Z,14.60
2024-01-17T10:30:27.934Z,13.83
2024-01-17T10:33:03.718Z,15.13
2024-01-17T10:35:39.014Z,13.00
2024-01-17T10:38:13.629Z,14.17
2024-01-17T10:40:49.149Z,13.30
2024-01-17T10:43:23.388Z,12.43
2024-01-17T10:45:57.800Z,10.73
2024-01-17T10:48:32.044Z,12.00
2024-01-17T10:51:07.853Z,14.00
2024-01-17T10:53:51.303Z,11.47
2024-01-17T10:56:32.854Z,11.63
2024-01-17T10:59:07.703Z,11.03
2024-01-17T11:01:45.855Z,10.10
2024-01-17T11:04:25.117Z,12.97
2024-01-17T11:07:01.186Z,14.13
2024-01-17T11:09:36.022Z,12.43
2024-01-17T11:12:12.851Z,22.33
2024-01-17T11:14:49.424Z,21.03
2024-01-17T11:17:32.363Z,27.83
2024-01-17T11:20:13.494Z,21.17
2024-01-17T11:22:49.405Z,20.07
2024-01-17T11:25:31.388Z,24.00
2024-01-17T11:28:20.615Z,15.47
2024-01-17T11:31:12.297Z,15.90
2024-01-17T11:33:47.346Z,19.80
2024-01-17T11:36:45.640Z,17.92
2024-01-17T11:39:21.249Z,18.77
2024-01-17T11:41:56.535Z,15.15
2024-01-17T11:44:32.994Z,21.48
2024-01-17T11:47:09.298Z,21.00
2024-01-17T11:49:46.903Z,29.67
2024-01-17T11:52:29.265Z,24.92
2024-01-17T11:55:04.277Z,22.77
2024-01-17T11:57:39.189Z,21.00
2024-01-17T12:00:17.706Z,21.52
2024-01-17T12:02:51.890Z,15.13
2024-01-17T12:05:26.016Z,14.80
2024-01-17T12:08:00.220Z,15.90
2024-01-17T12:10:34.382Z,13.00
2024-01-17T12:13:08.692Z,14.18
2024-01-17T12:15:44.109Z,14.68
2024-01-17T12:18:22.101Z,14.35
2024-01-17T12:20:57.222Z,17.20
2024-01-17T12:23:33.648Z,15.93
2024-01-17T12:26:07.905Z,15.60
2024-01-17T12:28:42.018Z,15.70
2024-01-17T12:31:17.825Z,24.63
2024-01-17T12:33:52.779Z,21.08
2024-01-17T12:36:26.943Z,18.67
2024-01-17T12:39:06.077Z,18.17
2024-01-17T12:41:40.405Z,19.60
2024-01-17T12:44:14.845Z,16.75
2024-01-17T12:46:50.427Z,19.75
2024-01-17T12:49:24.630Z,22.10
2024-01-17T12:51:58.804Z,16.30
2024-01-17T12:54:33.504Z,13.27
2024-01-17T12:57:07.664Z,16.45
2024-01-17T12:59:42.299Z,14.10
2024-01-17T13:02:18.291Z,16.20
2024-01-17T13:05:09.207Z,13.73
2024-01-17T13:07:43.345Z,36.45
2024-01-17T13:10:18.883Z,27.40
2024-01-17T13:12:57.063Z,18.88
2024-01-17T13:15:31.160Z,21.95
2024-01-17T13:18:09.929Z,37.80
2024-01-17T13:20:44.144Z,24.05
2024-01-17T13:23:18.492Z,26.50
2024-01-17T13:25:52.577Z,17.83
2024-01-17T13:28:26.642Z,17.15
2024-01-17T13:31:00.718Z,13.68
2024-01-17T13:33:36.818Z,12.85
2024-01-17T13:36:11.024Z,13.88
2024-01-17T13:38:45.623Z,15.23
2024-01-17T13:41:19.784Z,13.85
2024-01-17T13:43:54.374Z,14.05
2024-01-17T13:46:29.019Z,13.82
2024-01-17T13:49:06.520Z,11.88
2024-01-17T13:51:47.396Z,13.75
2024-01-17T13:54:23.820Z,11.93
2024-01-17T13:56:58.224Z,11.98
2024-01-17T13:59:33.105Z,20.00
2024-01-17T14:02:07.566Z,19.88
2024-01-17T14:04:44.091Z,15.98
2024-01-17T14:07:21.193Z,15.50
2024-01-17T14:09:55.324Z,16.45
2024-01-17T14:12:29.957Z,15.38
2024-01-17T14:15:05.862Z,12.15
2024-01-17T14:17:40.360Z,14.75
2024-01-17T14:20:20.318Z,12.10
2024-01-17T14:22:54.768Z,11.40
2024-01-17T14:25:28.980Z,10.95
2024-01-17T14:28:06.966Z,11.98
2024-01-17T14:30:41.284Z,12.27
2024-01-17T14:33:20.234Z,11.70
2024-01-17T14:35:55.946Z,12.43
2024-01-17T14:38:30.017Z,12.52
2024-01-17T14:41:04.112Z,13.32
2024-01-17T14:43:39.118Z,11.23
2024-01-17T14:46:13.130Z,15.45
2024-01-17T14:48:47.415Z,12.27
2024-01-17T14:51:22.956Z,14.90
2024-01-17T14:53:57.284Z,11.68
2024-01-17T14:56:31.445Z,10.27
2024-01-17T14:59:06.669Z,10.65
2024-01-17T15:01:41.950Z,12.35
2024-01-17T15:04:16.660Z,12.38
2024-01-17T15:06:52.982Z,11.13
2024-01-17T15:09:27.277Z,12.57
2024-01-17T15:12:01.883Z,11.02
2024-01-17T15:14:36.003Z,14.35
2024-01-17T15:17:10.092Z,15.13
2024-01-17T15:19:44.351Z,12.88
2024-01-17T15:22:19.876Z,15.40
2024-01-17T15:24:53.977Z,16.48
2024-01-17T15:27:28.159Z,12.90
2024-01-17T15:30:02.464Z,12.63
2024-01-17T15:32:36.741Z,13.00
2024-01-17T15:35:11.189Z,11.32
2024-01-17T15:37:46.713Z,25.85
2024-01-17T15:40:20.918Z,15.00
2024-01-17T15:42:55.094Z,15.50
2024-01-17T15:45:29.314Z,14.07
2024-01-17T15:48:03.708Z,15.73
2024-01-17T15:50:39.189Z,12.57
2024-01-17T15:53:15.308Z,14.43
2024-01-17T15:55:49.480Z,17.45
2024-01-17T15:58:23.605Z,13.77
2024-01-17T16:00:57.732Z,14.90
2024-01-17T16:03:32.102Z,10.23
2024-01-17T16:06:07.472Z,10.75
2024-01-17T16:08:43.049Z,13.38
2024-01-17T16:11:17.165Z,10.85
2024-01-17T16:13:52.281Z,11.70
2024-01-17T16:16:26.395Z,14.07
2024-01-17T16:19:00.644Z,12.15
2024-01-17T16:21:35.006Z,17.77
2024-01-17T16:24:11.452Z,16.35
2024-01-17T16:26:45.978Z,15.18
2024-01-17T16:29:20.149Z,13.63
2024-01-17T16:31:54.297Z,16.20
2024-01-17T16:34:28.553Z,13.25
2024-01-17T16:37:02.700Z,12.63
2024-01-17T16:39:38.916Z,10.45
2024-01-17T16:42:13.110Z,13.45
2024-01-17T16:44:47.370Z,9.90
2024-01-17T16:47:21.479Z,8.82
2024-01-17T16:49:55.687Z,12.45
2024-01-17T16:52:30.692Z,15.93
2024-01-17T16:55:08.277Z,15.75
2024-01-17T16:57:42.438Z,13.10
2024-01-17T17:00:17.696Z,16.70
2024-01-17T17:02:51.844Z,15.95
2024-01-17T17:05:26.417Z,23.42
2024-01-17T17:08:01.224Z,29.58
2024-01-17T17:10:37.738Z,21.95
2024-01-17T17:13:12.079Z,38.95
2024-01-17T17:15:46.211Z,47.63
2024-01-17T17:18:21.369Z,34.35
2024-01-17T17:20:55.519Z,49.13
2024-01-17T17:23:29.650Z,49.58
2024-01-17T17:26:07.495Z,47.97
2024-01-17T17:28:42.694Z,45.05
2024-01-17T17:31:20.157Z,41.42
2024-01-17T17:33:54.403Z,30.08
2024-01-17T17:36:29.495Z,28.58
2024-01-17T17:39:04.042Z,24.92
2024-01-17T17:41:40.857Z,28.90
2024-01-17T17:44:15.007Z,16.35
2024-01-17T17:46:49.155Z,22.98
2024-01-17T17:49:23.278Z,18.38
2024-01-17T17:51:57.560Z,14.38
2024-01-17T17:54:31.722Z,14.13
2024-01-17T17:57:07.467Z,13.80
2024-01-17T17:59:41.890Z,13.77
2024-01-17T18:02:15.979Z,12.93
2024-01-17T18:04:50.217Z,14.45
2024-01-17T18:07:24.403Z,12.70
2024-01-17T18:09:58.503Z,9.73
2024-01-17T18:12:34.125Z,10.57
2024-01-17T18:15:10.802Z,10.95
2024-01-17T18:17:45.219Z,8.82
2024-01-17T18:20:22.725Z,7.30
2024-01-17T18:22:57.068Z,6.07
2024-01-17T18:25:34.231Z,6.60
2024-01-17T18:28:13.298Z,6.03
2024-01-17T18:30:47.359Z,4.40
2024-01-17T18:33:21.540Z,3.15
2024-01-17T18:35:56.570Z,2.25
2024-01-17T18:38:30.851Z,3.25
2024-01-17T18:41:07.455Z,1.40
2024-01-17T18:43:42.942Z,1.50
2024-01-17T18:46:17.273Z,1.50
2024-01-17T18:48:52.371Z,1.58
2024-01-17T18:51:27.386Z,1.35
2024-01-17T18:54:01.656Z,1.98
2024-01-17T18:56:35.862Z,1.45
2024-01-17T18:59:11.298Z,1.45
2024-01-17T19:01:45.471Z,0.90
2024-01-17T19:04:20.204Z,2.25
2024-01-17T19:06:54.414Z,1.65
2024-01-17T19:09:28.583Z,1.58
2024-01-17T19:12:03.929Z,5.20
2024-01-17T19:14:40.334Z,2.17
2024-01-17T19:17:14.491Z,1.02
2024-01-17T19:19:48.590Z,0.95
2024-01-17T19:22:22.690Z,1.30
2024-01-17T19:24:56.751Z,2.20
2024-01-17T19:27:33.802Z,1.55
2024-01-17T19:30:11.475Z,0.90
2024-01-17T19:32:46.033Z,0.80
2024-01-17T19:35:21.653Z,2.30
2024-01-17T19:38:01.644Z,1.67
2024-01-17T19:40:36.460Z,1.65
2024-01-17T19:43:11.946Z,1.95
2024-01-17T19:45:47.490Z,1.67
2024-01-17T19:48:23.382Z,1.20
2024-01-17T19:50:57.768Z,1.30
2024-01-17T19:53:32.101Z,1.73
2024-01-17T19:56:07.459Z,2.53
2024-01-17T19:58:41.548Z,2.95
2024-01-17T20:01:17.003Z,3.72
2024-01-17T20:03:51.647Z,5.35
2024-01-17T20:06:25.918Z,6.15
2024-01-17T20:09:00.550Z,5.80
2024-01-17T20:11:34.650Z,5.72
2024-01-17T20:14:08.747Z,6.50
2024-01-17T20:16:44.379Z,6.22
2024-01-17T20:19:19.160Z,5.68
2024-01-17T20:21:53.464Z,6.63
2024-01-17T20:24:27.680Z,5.45
2024-01-17T20:27:01.918Z,6.22
2024-01-17T20:29:36.125Z,7.18
2024-01-17T20:32:11.552Z,6.75
2024-01-17T20:34:47.176Z,8.00
2024-01-17T20:37:22.073Z,8.88
2024-01-17T20:39:56.228Z,4.82
2024-01-17T20:42:30.427Z,5.78
2024-01-17T20:45:05.145Z,7.45
2024-01-17T20:47:41.275Z,5.95
2024-01-17T20:50:17.410Z,5.00
2024-01-17T20:52:51.623Z,6.13
2024-01-17T20:55:25.885Z,4.82
2024-01-17T20:57:59.987Z,5.63
2024-01-17T21:00:35.035Z,6.80
2024-01-17T21:03:10.580Z,5.10
2024-01-17T21:05:45.024Z,5.15
2024-01-17T21:08:19.510Z,6.65
2024-01-17T21:10:54.777Z,6.00
2024-01-17T21:13:29.054Z,5.78
2024-01-17T21:16:03.216Z,6.55
2024-01-17T21:18:38.773Z,5.20
2024-01-17T21:21:13.127Z,5.53
2024-01-17T21:23:47.294Z,4.63
2024-01-17T21:26:22.266Z,3.42
2024-01-17T21:28:56.366Z,4.18
2024-01-17T21:31:30.532Z,3.83
2024-01-17T21:34:07.998Z,3.83
2024-01-17T21:36:42.399Z,4.20
2024-01-17T21:39:16.569Z,3.88
2024-01-17T21:41:52.522Z,4.57
2024-01-17T21:44:26.997Z,4.57
2024-01-17T21:47:01.398Z,4.47
2024-01-17T21:49:36.911Z,3.45
2024-01-17T21:52:11.071Z,4.07
2024-01-17T21:54:45.147Z,5.10
2024-01-17T21:57:19.406Z,4.05
2024-01-17T21:59:55.050Z,7.53
2024-01-17T22:02:29.346Z,4.65
2024-01-17T22:05:05.561Z,5.30
2024-01-17T22:07:39.903Z,4.45
2024-01-17T22:10:16.639Z,5.40
2024-01-17T22:12:50.840Z,7.90
2024-01-17T22:15:27.393Z,7.13
2024-01-17T22:18:03.171Z,7.80
2024-01-17T22:20:39.319Z,5.93
2024-01-17T22:23:13.575Z,6.32
2024-01-17T22:25:47.728Z,6.97
2024-01-17T22:28:21.791Z,4.97
2024-01-17T22:30:55.858Z,6.95
2024-01-17T22:33:30.553Z,4.35
2024-01-17T22:36:07.329Z,3.05
2024-01-17T22:38:41.395Z,2.58
2024-01-17T22:41:15.662Z,1.55
2024-01-17T22:43:49.698Z,2.42
2024-01-17T22:46:23.760Z,1.40
2024-01-17T22:48:58.054Z,1.77
2024-01-17T22:51:33.696Z,1.98
2024-01-17T22:54:07.863Z,1.23
2024-01-17T22:56:42.065Z,2.03
2024-01-17T22:59:16.081Z,1.30
2024-01-17T23:01:50.124Z,1.77
2024-01-17T23:04:24.230Z,1.33
2024-01-17T23:06:59.739Z,0.95
2024-01-17T23:09:33.839Z,1.08
2024-01-17T23:12:09.749Z,2.28
2024-01-17T23:14:43.848Z,2.08
2024-01-17T23:17:18.346Z,1.73
2024-01-17T23:19:52.546Z,1.02
2024-01-17T23:22:27.992Z,0.98
2024-01-17T23:25:02.875Z,1.17
2024-01-17T23:27:37.006Z,1.52
2024-01-17T23:30:12.259Z,2.38
2024-01-17T23:32:46.603Z,0.82
2024-01-17T23:35:21.334Z,0.63
2024-01-17T23:37:56.692Z,0.45
2024-01-17T23:40:30.736Z,0.75
2024-01-17T23:43:05.376Z,0.70
2024-01-17T23:45:39.534Z,0.28
2024-01-17T23:48:13.837Z,0.32
2024-01-17T23:50:47.987Z,0.30
2024-01-17T23:53:23.427Z,1.25
2024-01-17T23:55:57.593Z,0.85
2024-01-17T23:58:31.670Z,0.65
